sensor_id;sensor_type;location;lat;lon;timestamp;pressure;altitude;pressure_sealevel;temperature;humidity
28312;BME280;15572;48.810;9.148;2023-02-16T00:01:23;99176.03;;;-0.26;100.00
28312;BME280;15572;48.810;9.148;2023-02-16T00:06:21;99175.72;;;-0.34;100.00
28312;BME280;15572;48.810;9.148;2023-02-16T00:11:20;99174.97;;;-0.36;100.00
28312;BME280;15572;48.810;9.148;2023-02-16T00:16:37;99181.38;;;-0.38;100.00
28312;BME280;15572;48.810;9.148;2023-02-16T00:21:34;99176.91;;;-0.38;100.00
28312;BME280;15572;48.810;9.148;2023-02-16T00:26:33;99179.97;;;-0.44;100.00
28312;BME280;15572;48.810;9.148;2023-02-16T00:31:30;99176.22;;;-0.54;100.00
28312;BME280;15572;48.810;9.148;2023-02-16T00:36:26;99180.25;;;-0.61;100.00
28312;BME280;15572;48.810;9.148;2023-02-16T00:41:24;99183.88;;;-0.62;100.00
28312;BME280;15572;48.810;9.148;2023-02-16T00:46:38;99177.16;;;-0.68;100.00
28312;BME280;15572;48.810;9.148;2023-02-16T00:51:34;99179.91;;;-0.69;100.00
28312;BME280;15572;48.810;9.148;2023-02-16T00:56:32;99178.63;;;-0.76;100.00
28312;BME280;15572;48.810;9.148;2023-02-16T01:01:31;99170.28;;;-0.85;100.00
28312;BME280;15572;48.810;9.148;2023-02-16T01:06:28;99175.09;;;-0.77;100.00
28312;BME280;15572;48.810;9.148;2023-02-16T01:11:43;99186.75;;;-0.65;100.00
28312;BME280;15572;48.810;9.148;2023-02-16T01:16:41;99186.53;;;-0.62;100.00
28312;BME280;15572;48.810;9.148;2023-02-16T01:21:38;99177.88;;;-0.78;100.00
28312;BME280;15572;48.810;9.148;2023-02-16T01:26:37;99185.38;;;-0.85;100.00
28312;BME280;15572;48.810;9.148;2023-02-16T01:31:36;99182.59;;;-0.96;100.00
28312;BME280;15572;48.810;9.148;2023-02-16T01:36:34;99174.91;;;-1.01;100.00
28312;BME280;15572;48.810;9.148;2023-02-16T01:41:49;99169.81;;;-1.04;100.00
28312;BME280;15572;48.810;9.148;2023-02-16T01:46:53;99160.75;;;-1.01;100.00
28312;BME280;15572;48.810;9.148;2023-02-16T01:51:55;99157.28;;;-1.02;100.00
28312;BME280;15572;48.810;9.148;2023-02-16T01:56:57;99143.69;;;-0.97;100.00
28312;BME280;15572;48.810;9.148;2023-02-16T02:01:57;99137.50;;;-0.98;100.00
28312;BME280;15572;48.810;9.148;2023-02-16T02:06:55;99139.63;;;-1.03;100.00
28312;BME280;15572;48.810;9.148;2023-02-16T02:11:55;99153.84;;;-1.04;100.00
28312;BME280;15572;48.810;9.148;2023-02-16T02:16:57;99141.44;;;-1.03;100.00
28312;BME280;15572;48.810;9.148;2023-02-16T02:22:18;99140.13;;;-1.10;100.00
28312;BME280;15572;48.810;9.148;2023-02-16T02:27:56;99148.31;;;-1.28;100.00
28312;BME280;15572;48.810;9.148;2023-02-16T02:33:10;99140.25;;;-1.26;100.00
28312;BME280;15572;48.810;9.148;2023-02-16T02:38:16;99132.59;;;-1.31;100.00
28312;BME280;15572;48.810;9.148;2023-02-16T02:43:21;99135.00;;;-1.40;100.00
28312;BME280;15572;48.810;9.148;2023-02-16T02:48:19;99135.00;;;-1.40;100.00
28312;BME280;15572;48.810;9.148;2023-02-16T02:53:16;99132.53;;;-1.43;100.00
28312;BME280;15572;48.810;9.148;2023-02-16T02:58:13;99125.31;;;-1.41;100.00
28312;BME280;15572;48.810;9.148;2023-02-16T03:03:32;99128.94;;;-1.42;100.00
28312;BME280;15572;48.810;9.148;2023-02-16T03:08:30;99122.66;;;-1.41;100.00
28312;BME280;15572;48.810;9.148;2023-02-16T03:13:31;99123.44;;;-1.39;100.00
28312;BME280;15572;48.810;9.148;2023-02-16T03:18:33;99124.69;;;-1.45;100.00
28312;BME280;15572;48.810;9.148;2023-02-16T03:23:50;99125.25;;;-1.40;100.00
28312;BME280;15572;48.810;9.148;2023-02-16T03:29:06;99115.91;;;-1.33;100.00
28312;BME280;15572;48.810;9.148;2023-02-16T03:34:16;99119.25;;;-1.43;100.00
28312;BME280;15572;48.810;9.148;2023-02-16T03:39:13;99122.41;;;-1.51;100.00
28312;BME280;15572;48.810;9.148;2023-02-16T03:44:10;99123.38;;;-1.52;100.00
28312;BME280;15572;48.810;9.148;2023-02-16T03:49:07;99119.38;;;-1.45;100.00
28312;BME280;15572;48.810;9.148;2023-02-16T03:54:05;99135.16;;;-1.56;100.00
28312;BME280;15572;48.810;9.148;2023-02-16T03:59:01;99131.94;;;-1.61;100.00
28312;BME280;15572;48.810;9.148;2023-02-16T04:03:58;99142.56;;;-1.61;100.00
28312;BME280;15572;48.810;9.148;2023-02-16T04:08:54;99146.72;;;-1.57;100.00
28312;BME280;15572;48.810;9.148;2023-02-16T04:13:52;99145.66;;;-1.54;100.00
28312;BME280;15572;48.810;9.148;2023-02-16T04:18:48;99152.31;;;-1.61;100.00
28312;BME280;15572;48.810;9.148;2023-02-16T04:23:45;99148.03;;;-1.64;100.00
28312;BME280;15572;48.810;9.148;2023-02-16T04:28:41;99148.03;;;-1.64;100.00
28312;BME280;15572;48.810;9.148;2023-02-16T04:33:39;99152.50;;;-1.64;100.00
28312;BME280;15572;48.810;9.148;2023-02-16T04:38:35;99153.34;;;-1.64;100.00
28312;BME280;15572;48.810;9.148;2023-02-16T04:43:32;99147.41;;;-1.67;100.00
28312;BME280;15572;48.810;9.148;2023-02-16T04:48:28;99148.63;;;-1.73;100.00
28312;BME280;15572;48.810;9.148;2023-02-16T04:53:26;99146.28;;;-1.78;100.00
28312;BME280;15572;48.810;9.148;2023-02-16T04:58:23;99145.41;;;-1.78;100.00
28312;BME280;15572;48.810;9.148;2023-02-16T05:03:19;99145.50;;;-1.80;100.00
28312;BME280;15572;48.810;9.148;2023-02-16T05:08:15;99139.47;;;-1.82;100.00
28312;BME280;15572;48.810;9.148;2023-02-16T05:13:13;99137.63;;;-1.81;100.00
28312;BME280;15572;48.810;9.148;2023-02-16T05:18:27;99145.03;;;-1.86;100.00
28312;BME280;15572;48.810;9.148;2023-02-16T05:23:24;99146.28;;;-1.92;100.00
28312;BME280;15572;48.810;9.148;2023-02-16T05:28:22;99152.56;;;-1.93;100.00
28312;BME280;15572;48.810;9.148;2023-02-16T05:33:18;99158.03;;;-1.96;100.00
28312;BME280;15572;48.810;9.148;2023-02-16T05:38:15;99161.63;;;-1.97;100.00
28312;BME280;15572;48.810;9.148;2023-02-16T05:43:12;99158.63;;;-2.05;100.00
28312;BME280;15572;48.810;9.148;2023-02-16T05:48:09;99160.63;;;-2.08;100.00
28312;BME280;15572;48.810;9.148;2023-02-16T05:53:06;99169.69;;;-2.13;100.00
28312;BME280;15572;48.810;9.148;2023-02-16T05:58:02;99169.81;;;-2.14;100.00
28312;BME280;15572;48.810;9.148;2023-02-16T06:02:59;99177.75;;;-2.14;100.00
28312;BME280;15572;48.810;9.148;2023-02-16T06:07:57;99180.88;;;-2.07;100.00
28312;BME280;15572;48.810;9.148;2023-02-16T06:12:53;99181.94;;;-2.10;100.00
28312;BME280;15572;48.810;9.148;2023-02-16T06:17:50;99190.81;;;-2.11;100.00
28312;BME280;15572;48.810;9.148;2023-02-16T06:22:46;99197.44;;;-2.18;100.00
28312;BME280;15572;48.810;9.148;2023-02-16T06:27:44;99201.66;;;-2.14;100.00
28312;BME280;15572;48.810;9.148;2023-02-16T06:32:40;99201.44;;;-2.11;100.00
28312;BME280;15572;48.810;9.148;2023-02-16T06:37:37;99201.91;;;-2.19;100.00
28312;BME280;15572;48.810;9.148;2023-02-16T06:42:33;99201.72;;;-2.01;100.00
28312;BME280;15572;48.810;9.148;2023-02-16T06:47:31;99190.94;;;-1.98;100.00
28312;BME280;15572;48.810;9.148;2023-02-16T06:52:27;99191.88;;;-1.99;100.00
28312;BME280;15572;48.810;9.148;2023-02-16T06:57:24;99205.44;;;-2.04;100.00
28312;BME280;15572;48.810;9.148;2023-02-16T07:02:20;99208.75;;;-2.00;100.00
28312;BME280;15572;48.810;9.148;2023-02-16T07:07:18;99206.97;;;-2.00;100.00
28312;BME280;15572;48.810;9.148;2023-02-16T07:12:15;99208.38;;;-1.94;100.00
28312;BME280;15572;48.810;9.148;2023-02-16T07:17:11;99205.16;;;-1.85;100.00
28312;BME280;15572;48.810;9.148;2023-02-16T07:22:08;99207.44;;;-1.79;100.00
28312;BME280;15572;48.810;9.148;2023-02-16T07:27:05;99205.91;;;-1.69;100.00
28312;BME280;15572;48.810;9.148;2023-02-16T07:32:04;99205.53;;;-1.63;100.00
28312;BME280;15572;48.810;9.148;2023-02-16T07:37:00;99214.44;;;-1.50;100.00
28312;BME280;15572;48.810;9.148;2023-02-16T07:41:57;99216.31;;;-1.38;100.00
28312;BME280;15572;48.810;9.148;2023-02-16T07:46:54;99210.13;;;-1.24;100.00
28312;BME280;15572;48.810;9.148;2023-02-16T07:51:51;99223.91;;;-1.05;100.00
28312;BME280;15572;48.810;9.148;2023-02-16T07:56:47;99224.00;;;-0.92;100.00
28312;BME280;15572;48.810;9.148;2023-02-16T08:01:44;99237.59;;;-0.70;100.00
28312;BME280;15572;48.810;9.148;2023-02-16T08:06:42;99237.84;;;-0.48;100.00
28312;BME280;15572;48.810;9.148;2023-02-16T08:11:40;99235.66;;;-0.28;100.00
28312;BME280;15572;48.810;9.148;2023-02-16T08:16:37;99229.22;;;-0.12;100.00
28312;BME280;15572;48.810;9.148;2023-02-16T08:21:33;99224.22;;;0.09;100.00
28312;BME280;15572;48.810;9.148;2023-02-16T08:26:35;99234.84;;;0.34;100.00
28312;BME280;15572;48.810;9.148;2023-02-16T08:31:34;99233.66;;;0.64;100.00
28312;BME280;15572;48.810;9.148;2023-02-16T08:36:33;99224.13;;;0.85;100.00
28312;BME280;15572;48.810;9.148;2023-02-16T08:41:33;99228.59;;;1.08;100.00
28312;BME280;15572;48.810;9.148;2023-02-16T08:46:32;99217.63;;;1.37;100.00
28312;BME280;15572;48.810;9.148;2023-02-16T08:51:30;99229.16;;;1.72;100.00
28312;BME280;15572;48.810;9.148;2023-02-16T08:56:29;99225.00;;;2.03;100.00
28312;BME280;15572;48.810;9.148;2023-02-16T09:01:27;99224.31;;;2.23;100.00
28312;BME280;15572;48.810;9.148;2023-02-16T09:06:24;99216.66;;;2.52;100.00
28312;BME280;15572;48.810;9.148;2023-02-16T09:11:21;99212.66;;;2.80;100.00
28312;BME280;15572;48.810;9.148;2023-02-16T09:16:20;99212.72;;;3.12;100.00
28312;BME280;15572;48.810;9.148;2023-02-16T09:21:20;99207.72;;;3.50;100.00
28312;BME280;15572;48.810;9.148;2023-02-16T09:26:18;99211.75;;;3.97;100.00
28312;BME280;15572;48.810;9.148;2023-02-16T09:31:17;99213.38;;;4.30;100.00
28312;BME280;15572;48.810;9.148;2023-02-16T09:36:19;99212.44;;;4.71;100.00
28312;BME280;15572;48.810;9.148;2023-02-16T09:41:26;99211.47;;;5.22;100.00
28312;BME280;15572;48.810;9.148;2023-02-16T09:46:24;99209.25;;;5.84;100.00
28312;BME280;15572;48.810;9.148;2023-02-16T09:51:25;99201.44;;;6.20;100.00
28312;BME280;15572;48.810;9.148;2023-02-16T09:56:26;99203.56;;;6.72;98.76
28312;BME280;15572;48.810;9.148;2023-02-16T10:01:27;99201.56;;;7.29;85.28
28312;BME280;15572;48.810;9.148;2023-02-16T10:06:33;99194.72;;;8.06;73.12
28312;BME280;15572;48.810;9.148;2023-02-16T10:11:33;99200.28;;;8.56;69.47
28312;BME280;15572;48.810;9.148;2023-02-16T10:16:39;99198.38;;;8.74;67.24
28312;BME280;15572;48.810;9.148;2023-02-16T10:21:41;99196.00;;;9.05;64.70
28312;BME280;15572;48.810;9.148;2023-02-16T10:26:41;99197.09;;;9.28;63.87
28312;BME280;15572;48.810;9.148;2023-02-16T10:31:41;99191.06;;;9.50;60.52
28312;BME280;15572;48.810;9.148;2023-02-16T10:36:51;99190.72;;;9.53;63.03
28312;BME280;15572;48.810;9.148;2023-02-16T10:41:57;99182.47;;;9.55;65.74
28312;BME280;15572;48.810;9.148;2023-02-16T10:46:59;99178.56;;;9.49;67.96
28312;BME280;15572;48.810;9.148;2023-02-16T10:52:00;99168.63;;;9.74;61.48
28312;BME280;15572;48.810;9.148;2023-02-16T10:56:59;99171.19;;;10.16;56.58
28312;BME280;15572;48.810;9.148;2023-02-16T11:01:57;99165.59;;;10.26;58.96
28312;BME280;15572;48.810;9.148;2023-02-16T11:07:02;99163.25;;;10.31;59.14
28312;BME280;15572;48.810;9.148;2023-02-16T11:12:01;99154.41;;;10.45;61.66
28312;BME280;15572;48.810;9.148;2023-02-16T11:17:06;99158.88;;;10.69;62.64
28312;BME280;15572;48.810;9.148;2023-02-16T11:22:23;99153.19;;;11.03;63.11
28312;BME280;15572;48.810;9.148;2023-02-16T11:27:23;99145.81;;;11.50;62.68
28312;BME280;15572;48.810;9.148;2023-02-16T11:32:20;99143.31;;;11.94;61.75
28312;BME280;15572;48.810;9.148;2023-02-16T11:37:23;99135.88;;;12.26;58.40
28312;BME280;15572;48.810;9.148;2023-02-16T11:42:27;99136.50;;;12.65;58.23
28312;BME280;15572;48.810;9.148;2023-02-16T11:47:28;99132.56;;;12.97;51.85
28312;BME280;15572;48.810;9.148;2023-02-16T11:52:28;99121.06;;;13.31;51.05
28312;BME280;15572;48.810;9.148;2023-02-16T11:57:28;99118.34;;;13.95;49.96
28312;BME280;15572;48.810;9.148;2023-02-16T12:02:48;99105.53;;;14.10;47.95
28312;BME280;15572;48.810;9.148;2023-02-16T12:08:11;99100.97;;;14.17;46.07
28312;BME280;15572;48.810;9.148;2023-02-16T12:13:16;99095.72;;;14.37;45.37
28312;BME280;15572;48.810;9.148;2023-02-16T12:18:23;99092.03;;;14.51;44.60
28312;BME280;15572;48.810;9.148;2023-02-16T12:23:34;99084.50;;;14.53;44.63
28312;BME280;15572;48.810;9.148;2023-02-16T12:28:40;99072.47;;;14.82;43.22
28312;BME280;15572;48.810;9.148;2023-02-16T12:33:42;99066.38;;;15.34;42.07
28312;BME280;15572;48.810;9.148;2023-02-16T12:38:52;99056.59;;;14.92;42.85
28312;BME280;15572;48.810;9.148;2023-02-16T12:43:53;99060.97;;;14.80;43.18
28312;BME280;15572;48.810;9.148;2023-02-16T12:48:55;99048.19;;;14.46;43.92
28312;BME280;15572;48.810;9.148;2023-02-16T12:53:59;99045.38;;;14.67;44.82
28312;BME280;15572;48.810;9.148;2023-02-16T12:59:14;99037.59;;;14.64;44.29
28312;BME280;15572;48.810;9.148;2023-02-16T13:04:17;99025.38;;;14.94;43.89
28312;BME280;15572;48.810;9.148;2023-02-16T13:09:23;99011.78;;;15.14;43.99
28312;BME280;15572;48.810;9.148;2023-02-16T13:14:31;99013.69;;;15.33;43.71
28312;BME280;15572;48.810;9.148;2023-02-16T13:19:29;99011.59;;;15.22;43.18
28312;BME280;15572;48.810;9.148;2023-02-16T13:24:36;99020.97;;;15.06;43.40
28312;BME280;15572;48.810;9.148;2023-02-16T13:30:21;99017.22;;;15.01;44.76
28312;BME280;15572;48.810;9.148;2023-02-16T13:35:35;99013.16;;;14.84;44.68
28312;BME280;15572;48.810;9.148;2023-02-16T13:41:05;99011.28;;;14.91;45.02
28312;BME280;15572;48.810;9.148;2023-02-16T13:46:06;99006.63;;;14.78;45.43
28312;BME280;15572;48.810;9.148;2023-02-16T13:51:12;99005.72;;;14.58;46.05
28312;BME280;15572;48.810;9.148;2023-02-16T13:56:17;99003.31;;;14.96;46.04
28312;BME280;15572;48.810;9.148;2023-02-16T14:01:38;99010.13;;;15.20;45.67
28312;BME280;15572;48.810;9.148;2023-02-16T14:06:37;99003.78;;;15.12;46.44
28312;BME280;15572;48.810;9.148;2023-02-16T14:11:59;99009.97;;;14.80;47.04
28312;BME280;15572;48.810;9.148;2023-02-16T14:17:15;99008.56;;;14.43;48.44
28312;BME280;15572;48.810;9.148;2023-02-16T14:22:16;99015.09;;;14.49;47.56
28312;BME280;15572;48.810;9.148;2023-02-16T14:27:38;99011.19;;;14.30;48.77
28312;BME280;15572;48.810;9.148;2023-02-16T14:32:37;99012.97;;;14.16;48.74
28312;BME280;15572;48.810;9.148;2023-02-16T14:37:37;99021.75;;;14.12;49.44
28312;BME280;15572;48.810;9.148;2023-02-16T14:42:35;99017.03;;;13.93;50.74
28312;BME280;15572;48.810;9.148;2023-02-16T14:47:38;99027.06;;;13.92;51.53
28312;BME280;15572;48.810;9.148;2023-02-16T14:53:09;99024.44;;;13.77;52.37
28312;BME280;15572;48.810;9.148;2023-02-16T14:58:22;99029.81;;;13.71;53.07
28312;BME280;15572;48.810;9.148;2023-02-16T15:03:24;99018.63;;;13.59;53.45
28312;BME280;15572;48.810;9.148;2023-02-16T15:08:24;99018.31;;;13.47;53.18
28312;BME280;15572;48.810;9.148;2023-02-16T15:13:30;99007.69;;;13.31;53.35
28312;BME280;15572;48.810;9.148;2023-02-16T15:18:32;99009.19;;;13.13;53.30
28312;BME280;15572;48.810;9.148;2023-02-16T15:23:31;99000.53;;;13.09;50.25
28312;BME280;15572;48.810;9.148;2023-02-16T15:28:30;98991.84;;;13.14;48.44
28312;BME280;15572;48.810;9.148;2023-02-16T15:33:37;98985.66;;;13.05;48.88
28312;BME280;15572;48.810;9.148;2023-02-16T15:38:36;98975.94;;;12.96;50.16
28312;BME280;15572;48.810;9.148;2023-02-16T15:43:35;98968.75;;;12.88;49.32
28312;BME280;15572;48.810;9.148;2023-02-16T15:48:36;98986.66;;;12.83;47.16
28312;BME280;15572;48.810;9.148;2023-02-16T15:53:36;98986.91;;;12.88;47.00
28312;BME280;15572;48.810;9.148;2023-02-16T15:58:34;98983.38;;;12.87;46.43
28312;BME280;15572;48.810;9.148;2023-02-16T16:03:30;98978.06;;;12.79;46.18
28312;BME280;15572;48.810;9.148;2023-02-16T16:08:29;98984.44;;;12.72;46.26
28312;BME280;15572;48.810;9.148;2023-02-16T16:13:27;98990.72;;;12.72;46.29
28312;BME280;15572;48.810;9.148;2023-02-16T16:18:50;98983.91;;;12.61;47.09
28312;BME280;15572;48.810;9.148;2023-02-16T16:23:58;98985.16;;;12.44;48.23
28312;BME280;15572;48.810;9.148;2023-02-16T16:28:55;98991.66;;;12.29;48.39
28312;BME280;15572;48.810;9.148;2023-02-16T16:33:54;98993.88;;;12.25;48.45
28312;BME280;15572;48.810;9.148;2023-02-16T16:39:09;98996.31;;;12.20;48.45
28312;BME280;15572;48.810;9.148;2023-02-16T16:44:09;98983.59;;;12.20;47.96
28312;BME280;15572;48.810;9.148;2023-02-16T16:49:14;98978.25;;;12.12;48.72
28312;BME280;15572;48.810;9.148;2023-02-16T16:54:30;98984.91;;;12.10;48.60
28312;BME280;15572;48.810;9.148;2023-02-16T16:59:26;98983.59;;;12.06;48.75
28312;BME280;15572;48.810;9.148;2023-02-16T17:04:23;98993.44;;;12.07;48.63
28312;BME280;15572;48.810;9.148;2023-02-16T17:09:22;98988.63;;;11.94;49.12
28312;BME280;15572;48.810;9.148;2023-02-16T17:14:19;98990.97;;;11.82;49.39
28312;BME280;15572;48.810;9.148;2023-02-16T17:19:18;98999.47;;;11.79;49.73
28312;BME280;15572;48.810;9.148;2023-02-16T17:24:15;99001.06;;;11.74;50.22
28312;BME280;15572;48.810;9.148;2023-02-16T17:29:12;99001.66;;;11.61;50.74
28312;BME280;15572;48.810;9.148;2023-02-16T17:34:10;99013.94;;;11.49;51.26
28312;BME280;15572;48.810;9.148;2023-02-16T17:39:06;99009.22;;;11.28;52.59
28312;BME280;15572;48.810;9.148;2023-02-16T17:44:03;99011.75;;;11.30;52.01
28312;BME280;15572;48.810;9.148;2023-02-16T17:49:01;99011.28;;;11.26;52.40
28312;BME280;15572;48.810;9.148;2023-02-16T17:53:57;99024.81;;;11.04;53.82
28312;BME280;15572;48.810;9.148;2023-02-16T17:58:54;99031.75;;;10.75;57.41
28312;BME280;15572;48.810;9.148;2023-02-16T18:03:50;99024.38;;;10.61;57.95
28312;BME280;15572;48.810;9.148;2023-02-16T18:08:49;99022.44;;;10.47;58.00
28312;BME280;15572;48.810;9.148;2023-02-16T18:13:46;99027.03;;;10.38;58.62
28312;BME280;15572;48.810;9.148;2023-02-16T18:18:44;99038.75;;;10.31;58.59
28312;BME280;15572;48.810;9.148;2023-02-16T18:23:40;99034.34;;;10.22;59.33
28312;BME280;15572;48.810;9.148;2023-02-16T18:28:38;99027.94;;;10.14;59.72
28312;BME280;15572;48.810;9.148;2023-02-16T18:33:35;99038.44;;;10.01;60.72
28312;BME280;15572;48.810;9.148;2023-02-16T18:38:31;99031.53;;;9.91;61.90
28312;BME280;15572;48.810;9.148;2023-02-16T18:43:28;99036.28;;;9.81;62.76
28312;BME280;15572;48.810;9.148;2023-02-16T18:48:26;99046.28;;;9.72;64.65
28312;BME280;15572;48.810;9.148;2023-02-16T18:53:23;99040.88;;;9.64;65.74
28312;BME280;15572;48.810;9.148;2023-02-16T18:58:19;99041.03;;;9.62;65.61
28312;BME280;15572;48.810;9.148;2023-02-16T19:03:16;99036.28;;;9.56;66.97
28312;BME280;15572;48.810;9.148;2023-02-16T19:08:14;99038.16;;;9.72;64.37
28312;BME280;15572;48.810;9.148;2023-02-16T19:13:13;99031.19;;;9.78;63.48
28312;BME280;15572;48.810;9.148;2023-02-16T19:18:26;99048.59;;;9.91;63.71
28312;BME280;15572;48.810;9.148;2023-02-16T19:23:25;99040.09;;;10.10;62.16
28312;BME280;15572;48.810;9.148;2023-02-16T19:28:21;99040.28;;;10.25;61.86
28312;BME280;15572;48.810;9.148;2023-02-16T19:33:18;99027.06;;;10.30;61.53
28312;BME280;15572;48.810;9.148;2023-02-16T19:38:14;99040.72;;;10.45;59.88
28312;BME280;15572;48.810;9.148;2023-02-16T19:43:12;99034.22;;;10.54;59.39
28312;BME280;15572;48.810;9.148;2023-02-16T19:48:08;99022.31;;;10.63;58.98
28312;BME280;15572;48.810;9.148;2023-02-16T19:53:05;99022.84;;;10.67;58.67
28312;BME280;15572;48.810;9.148;2023-02-16T19:58:01;99028.50;;;10.80;57.37
28312;BME280;15572;48.810;9.148;2023-02-16T20:02:59;99028.81;;;10.85;56.88
28312;BME280;15572;48.810;9.148;2023-02-16T20:07:56;99039.06;;;10.97;56.26
28312;BME280;15572;48.810;9.148;2023-02-16T20:12:52;99030.53;;;11.09;56.02
28312;BME280;15572;48.810;9.148;2023-02-16T20:17:49;99036.94;;;11.16;55.85
28312;BME280;15572;48.810;9.148;2023-02-16T20:22:47;99038.56;;;11.25;55.29
28312;BME280;15572;48.810;9.148;2023-02-16T20:27:43;99040.91;;;11.28;55.21
28312;BME280;15572;48.810;9.148;2023-02-16T20:32:40;99046.75;;;11.39;55.49
28312;BME280;15572;48.810;9.148;2023-02-16T20:37:36;99042.75;;;11.27;57.56
28312;BME280;15572;48.810;9.148;2023-02-16T20:42:34;99036.41;;;11.20;58.69
28312;BME280;15572;48.810;9.148;2023-02-16T20:47:30;99037.28;;;11.13;58.23
28312;BME280;15572;48.810;9.148;2023-02-16T20:52:27;99036.97;;;11.08;58.21
28312;BME280;15572;48.810;9.148;2023-02-16T20:57:23;99036.38;;;10.97;58.72
28312;BME280;15572;48.810;9.148;2023-02-16T21:02:21;99027.94;;;10.92;58.56
28312;BME280;15572;48.810;9.148;2023-02-16T21:07:18;99019.44;;;10.95;57.50
28312;BME280;15572;48.810;9.148;2023-02-16T21:12:15;99015.94;;;10.87;58.09
28312;BME280;15572;48.810;9.148;2023-02-16T21:17:11;99017.34;;;10.83;58.00
28312;BME280;15572;48.810;9.148;2023-02-16T21:22:09;99017.88;;;10.78;57.82
28312;BME280;15572;48.810;9.148;2023-02-16T21:27:06;99016.97;;;10.86;57.54
28312;BME280;15572;48.810;9.148;2023-02-16T21:32:03;99014.94;;;10.88;57.29
28312;BME280;15572;48.810;9.148;2023-02-16T21:37:00;99011.22;;;10.89;57.52
28312;BME280;15572;48.810;9.148;2023-02-16T21:41:57;99009.28;;;10.97;57.40
28312;BME280;15572;48.810;9.148;2023-02-16T21:46:54;99013.00;;;10.96;58.02
28312;BME280;15572;48.810;9.148;2023-02-16T21:51:50;98997.13;;;10.93;58.59
28312;BME280;15572;48.810;9.148;2023-02-16T21:56:48;98992.03;;;10.90;58.47
28312;BME280;15572;48.810;9.148;2023-02-16T22:01:48;98990.38;;;10.89;58.02
28312;BME280;15572;48.810;9.148;2023-02-16T22:06:47;98981.94;;;10.84;58.69
28312;BME280;15572;48.810;9.148;2023-02-16T22:11:44;98983.31;;;10.80;58.91
28312;BME280;15572;48.810;9.148;2023-02-16T22:16:43;98982.53;;;10.72;59.92
28312;BME280;15572;48.810;9.148;2023-02-16T22:21:43;98980.53;;;10.66;60.60
28312;BME280;15572;48.810;9.148;2023-02-16T22:26:40;98983.47;;;10.56;61.92
28312;BME280;15572;48.810;9.148;2023-02-16T22:31:37;98981.22;;;10.60;62.38
28312;BME280;15572;48.810;9.148;2023-02-16T22:36:35;98988.03;;;10.55;62.87
28312;BME280;15572;48.810;9.148;2023-02-16T22:41:33;98979.59;;;10.50;63.22
28312;BME280;15572;48.810;9.148;2023-02-16T22:46:30;98978.75;;;10.50;62.87
28312;BME280;15572;48.810;9.148;2023-02-16T22:51:29;98983.31;;;10.49;62.81
28312;BME280;15572;48.810;9.148;2023-02-16T22:56:26;98978.75;;;10.50;62.36
28312;BME280;15572;48.810;9.148;2023-02-16T23:01:27;98970.19;;;10.38;62.94
28312;BME280;15572;48.810;9.148;2023-02-16T23:06:26;98974.59;;;10.31;62.87
28312;BME280;15572;48.810;9.148;2023-02-16T23:11:24;98978.53;;;10.21;63.41
28312;BME280;15572;48.810;9.148;2023-02-16T23:16:23;98973.94;;;10.29;62.64
28312;BME280;15572;48.810;9.148;2023-02-16T23:21:23;98967.00;;;10.27;61.70
28312;BME280;15572;48.810;9.148;2023-02-16T23:26:22;98980.75;;;10.25;61.83
28312;BME280;15572;48.810;9.148;2023-02-16T23:31:19;98976.69;;;10.13;62.66
28312;BME280;15572;48.810;9.148;2023-02-16T23:36:15;98978.91;;;10.09;63.03
28312;BME280;15572;48.810;9.148;2023-02-16T23:41:14;98986.03;;;10.02;63.30
28312;BME280;15572;48.810;9.148;2023-02-16T23:46:10;98984.16;;;10.03;63.28
28312;BME280;15572;48.810;9.148;2023-02-16T23:51:07;98979.59;;;10.03;63.09
28312;BME280;15572;48.810;9.148;2023-02-16T23:56:06;98981.31;;;9.96;63.18
